sensor_id;sensor_type;location;lat;lon;timestamp;temperature;humidity
23579;DHT22;11967;50.852;4.400;2022-08-21T00:00:54;23.70;99.10
23579;DHT22;11967;50.852;4.400;2022-08-21T00:03:20;23.70;99.10
23579;DHT22;11967;50.852;4.400;2022-08-21T00:05:50;23.50;99.20
23579;DHT22;11967;50.852;4.400;2022-08-21T00:08:18;23.50;99.40
23579;DHT22;11967;50.852;4.400;2022-08-21T00:10:45;23.50;99.60
23579;DHT22;11967;50.852;4.400;2022-08-21T00:13:11;23.50;99.90
23579;DHT22;11967;50.852;4.400;2022-08-21T00:15:40;23.50;99.80
23579;DHT22;11967;50.852;4.400;2022-08-21T00:18:08;23.30;99.90
23579;DHT22;11967;50.852;4.400;2022-08-21T00:20:38;23.20;99.90
23579;DHT22;11967;50.852;4.400;2022-08-21T00:23:04;23.20;99.90
23579;DHT22;11967;50.852;4.400;2022-08-21T00:25:30;23.10;99.90
23579;DHT22;11967;50.852;4.400;2022-08-21T00:27:56;23.00;99.90
23579;DHT22;11967;50.852;4.400;2022-08-21T00:30:26;22.90;99.90
23579;DHT22;11967;50.852;4.400;2022-08-21T00:32:55;22.90;99.90
23579;DHT22;11967;50.852;4.400;2022-08-21T00:35:36;23.10;99.90
23579;DHT22;11967;50.852;4.400;2022-08-21T00:38:04;23.00;99.90
23579;DHT22;11967;50.852;4.400;2022-08-21T00:43:32;23.00;99.90
23579;DHT22;11967;50.852;4.400;2022-08-21T00:46:00;23.00;99.90
23579;DHT22;11967;50.852;4.400;2022-08-21T00:48:28;22.90;99.90
23579;DHT22;11967;50.852;4.400;2022-08-21T00:51:17;22.90;99.90
23579;DHT22;11967;50.852;4.400;2022-08-21T00:53:49;23.00;99.90
23579;DHT22;11967;50.852;4.400;2022-08-21T00:56:17;23.10;99.90
23579;DHT22;11967;50.852;4.400;2022-08-21T00:58:47;23.10;99.90
23579;DHT22;11967;50.852;4.400;2022-08-21T01:01:14;23.10;99.90
23579;DHT22;11967;50.852;4.400;2022-08-21T01:03:41;23.10;99.90
23579;DHT22;11967;50.852;4.400;2022-08-21T01:06:08;23.00;99.90
23579;DHT22;11967;50.852;4.400;2022-08-21T01:08:36;23.10;99.90
23579;DHT22;11967;50.852;4.400;2022-08-21T01:11:03;23.10;99.90
23579;DHT22;11967;50.852;4.400;2022-08-21T01:13:32;23.20;99.90
23579;DHT22;11967;50.852;4.400;2022-08-21T01:16:01;23.30;99.90
23579;DHT22;11967;50.852;4.400;2022-08-21T01:18:30;23.30;99.90
23579;DHT22;11967;50.852;4.400;2022-08-21T01:21:09;23.20;99.90
23579;DHT22;11967;50.852;4.400;2022-08-21T01:23:38;23.10;99.90
23579;DHT22;11967;50.852;4.400;2022-08-21T01:26:23;23.20;99.90
23579;DHT22;11967;50.852;4.400;2022-08-21T01:29:11;23.40;99.90
23579;DHT22;11967;50.852;4.400;2022-08-21T01:31:38;23.30;99.90
23579;DHT22;11967;50.852;4.400;2022-08-21T01:34:05;23.00;99.90
23579;DHT22;11967;50.852;4.400;2022-08-21T01:36:33;23.00;99.90
23579;DHT22;11967;50.852;4.400;2022-08-21T01:38:59;23.00;99.90
23579;DHT22;11967;50.852;4.400;2022-08-21T01:41:27;23.00;99.90
23579;DHT22;11967;50.852;4.400;2022-08-21T01:43:52;23.00;99.90
23579;DHT22;11967;50.852;4.400;2022-08-21T01:46:20;22.90;99.90
23579;DHT22;11967;50.852;4.400;2022-08-21T01:48:47;22.90;99.90
23579;DHT22;11967;50.852;4.400;2022-08-21T01:51:12;22.90;99.90
23579;DHT22;11967;50.852;4.400;2022-08-21T01:53:39;22.90;99.90
23579;DHT22;11967;50.852;4.400;2022-08-21T01:56:09;22.80;99.90
23579;DHT22;11967;50.852;4.400;2022-08-21T01:58:36;22.90;99.90
23579;DHT22;11967;50.852;4.400;2022-08-21T02:01:04;22.80;99.90
23579;DHT22;11967;50.852;4.400;2022-08-21T02:03:30;22.80;99.90
23579;DHT22;11967;50.852;4.400;2022-08-21T02:05:57;22.70;99.90
23579;DHT22;11967;50.852;4.400;2022-08-21T02:08:24;22.70;99.90
23579;DHT22;11967;50.852;4.400;2022-08-21T02:10:51;22.80;99.90
23579;DHT22;11967;50.852;4.400;2022-08-21T02:13:18;22.70;99.90
23579;DHT22;11967;50.852;4.400;2022-08-21T02:15:45;22.70;99.90
23579;DHT22;11967;50.852;4.400;2022-08-21T02:18:11;22.70;99.90
23579;DHT22;11967;50.852;4.400;2022-08-21T02:20:40;22.70;99.90
23579;DHT22;11967;50.852;4.400;2022-08-21T02:23:08;22.60;99.90
23579;DHT22;11967;50.852;4.400;2022-08-21T02:25:36;22.60;99.90
23579;DHT22;11967;50.852;4.400;2022-08-21T02:28:05;22.60;99.90
23579;DHT22;11967;50.852;4.400;2022-08-21T02:30:35;22.70;99.90
23579;DHT22;11967;50.852;4.400;2022-08-21T02:33:03;22.70;99.90
23579;DHT22;11967;50.852;4.400;2022-08-21T02:35:32;22.70;99.90
23579;DHT22;11967;50.852;4.400;2022-08-21T02:38:02;22.70;99.90
23579;DHT22;11967;50.852;4.400;2022-08-21T02:40:34;22.70;99.90
23579;DHT22;11967;50.852;4.400;2022-08-21T02:43:04;22.70;99.90
23579;DHT22;11967;50.852;4.400;2022-08-21T02:45:31;22.70;99.90
23579;DHT22;11967;50.852;4.400;2022-08-21T02:48:01;22.80;99.90
23579;DHT22;11967;50.852;4.400;2022-08-21T02:50:30;22.90;99.90
23579;DHT22;11967;50.852;4.400;2022-08-21T02:52:58;23.10;99.90
23579;DHT22;11967;50.852;4.400;2022-08-21T02:55:28;23.30;99.90
23579;DHT22;11967;50.852;4.400;2022-08-21T02:57:56;23.40;99.90
23579;DHT22;11967;50.852;4.400;2022-08-21T03:00:25;23.50;99.90
23579;DHT22;11967;50.852;4.400;2022-08-21T03:02:54;23.30;99.90
23579;DHT22;11967;50.852;4.400;2022-08-21T03:05:24;23.20;99.90
23579;DHT22;11967;50.852;4.400;2022-08-21T03:07:50;23.00;99.90
23579;DHT22;11967;50.852;4.400;2022-08-21T03:10:21;22.90;99.90
23579;DHT22;11967;50.852;4.400;2022-08-21T03:12:48;22.80;99.90
23579;DHT22;11967;50.852;4.400;2022-08-21T03:15:17;22.60;99.90
23579;DHT22;11967;50.852;4.400;2022-08-21T03:17:44;22.50;99.90
23579;DHT22;11967;50.852;4.400;2022-08-21T03:20:14;22.60;99.90
23579;DHT22;11967;50.852;4.400;2022-08-21T03:22:41;22.40;99.90
23579;DHT22;11967;50.852;4.400;2022-08-21T03:25:07;22.40;99.90
23579;DHT22;11967;50.852;4.400;2022-08-21T03:27:34;22.50;99.90
23579;DHT22;11967;50.852;4.400;2022-08-21T03:30:01;22.50;99.90
23579;DHT22;11967;50.852;4.400;2022-08-21T03:32:28;22.60;99.90
23579;DHT22;11967;50.852;4.400;2022-08-21T03:34:54;22.60;99.90
23579;DHT22;11967;50.852;4.400;2022-08-21T03:37:23;22.40;99.90
23579;DHT22;11967;50.852;4.400;2022-08-21T03:39:50;22.40;99.90
23579;DHT22;11967;50.852;4.400;2022-08-21T03:42:19;22.40;99.90
23579;DHT22;11967;50.852;4.400;2022-08-21T03:44:45;22.40;99.90
23579;DHT22;11967;50.852;4.400;2022-08-21T03:47:11;22.60;99.90
23579;DHT22;11967;50.852;4.400;2022-08-21T03:49:37;22.60;99.90
23579;DHT22;11967;50.852;4.400;2022-08-21T03:52:03;22.60;99.90
23579;DHT22;11967;50.852;4.400;2022-08-21T03:54:30;22.60;99.90
23579;DHT22;11967;50.852;4.400;2022-08-21T03:56:57;22.60;99.90
23579;DHT22;11967;50.852;4.400;2022-08-21T03:59:24;22.50;99.90
23579;DHT22;11967;50.852;4.400;2022-08-21T04:01:59;22.50;99.90
23579;DHT22;11967;50.852;4.400;2022-08-21T04:04:27;22.50;99.90
23579;DHT22;11967;50.852;4.400;2022-08-21T04:06:53;22.50;99.90
23579;DHT22;11967;50.852;4.400;2022-08-21T04:09:19;22.50;99.90
23579;DHT22;11967;50.852;4.400;2022-08-21T04:11:45;22.60;99.90
23579;DHT22;11967;50.852;4.400;2022-08-21T04:14:12;22.50;99.90
23579;DHT22;11967;50.852;4.400;2022-08-21T04:16:38;22.50;99.90
23579;DHT22;11967;50.852;4.400;2022-08-21T04:19:07;22.60;99.90
23579;DHT22;11967;50.852;4.400;2022-08-21T04:21:33;22.50;99.90
23579;DHT22;11967;50.852;4.400;2022-08-21T04:23:59;22.50;99.90
23579;DHT22;11967;50.852;4.400;2022-08-21T04:26:27;22.60;99.90
23579;DHT22;11967;50.852;4.400;2022-08-21T04:28:52;22.60;99.90
23579;DHT22;11967;50.852;4.400;2022-08-21T04:31:19;22.50;99.90
23579;DHT22;11967;50.852;4.400;2022-08-21T04:33:45;22.50;99.90
23579;DHT22;11967;50.852;4.400;2022-08-21T04:36:11;22.40;99.90
23579;DHT22;11967;50.852;4.400;2022-08-21T04:38:37;22.40;99.90
23579;DHT22;11967;50.852;4.400;2022-08-21T04:41:03;22.40;99.90
23579;DHT22;11967;50.852;4.400;2022-08-21T04:43:31;22.50;99.90
23579;DHT22;11967;50.852;4.400;2022-08-21T04:45:58;22.40;99.90
23579;DHT22;11967;50.852;4.400;2022-08-21T04:48:27;22.50;99.90
23579;DHT22;11967;50.852;4.400;2022-08-21T04:51:16;22.40;99.90
23579;DHT22;11967;50.852;4.400;2022-08-21T04:54:06;22.40;99.90
23579;DHT22;11967;50.852;4.400;2022-08-21T04:56:42;22.40;99.90
23579;DHT22;11967;50.852;4.400;2022-08-21T04:59:17;22.30;99.90
23579;DHT22;11967;50.852;4.400;2022-08-21T05:01:47;22.30;99.90
23579;DHT22;11967;50.852;4.400;2022-08-21T05:04:16;22.30;99.90
23579;DHT22;11967;50.852;4.400;2022-08-21T05:06:46;22.30;99.90
23579;DHT22;11967;50.852;4.400;2022-08-21T05:09:16;22.30;99.90
23579;DHT22;11967;50.852;4.400;2022-08-21T05:11:44;22.30;99.90
23579;DHT22;11967;50.852;4.400;2022-08-21T05:14:13;22.20;99.90
23579;DHT22;11967;50.852;4.400;2022-08-21T05:16:41;22.20;99.90
23579;DHT22;11967;50.852;4.400;2022-08-21T05:19:09;22.20;99.90
23579;DHT22;11967;50.852;4.400;2022-08-21T05:21:39;22.20;99.90
23579;DHT22;11967;50.852;4.400;2022-08-21T05:24:11;22.10;99.90
23579;DHT22;11967;50.852;4.400;2022-08-21T05:26:38;22.00;99.90
23579;DHT22;11967;50.852;4.400;2022-08-21T05:29:06;22.00;99.90
23579;DHT22;11967;50.852;4.400;2022-08-21T05:31:31;22.10;99.90
23579;DHT22;11967;50.852;4.400;2022-08-21T05:33:58;22.00;99.90
23579;DHT22;11967;50.852;4.400;2022-08-21T05:36:24;21.90;99.90
23579;DHT22;11967;50.852;4.400;2022-08-21T05:38:51;21.90;99.90
23579;DHT22;11967;50.852;4.400;2022-08-21T05:41:19;22.10;99.90
23579;DHT22;11967;50.852;4.400;2022-08-21T05:43:47;22.10;99.90
23579;DHT22;11967;50.852;4.400;2022-08-21T05:46:15;22.10;99.90
23579;DHT22;11967;50.852;4.400;2022-08-21T05:48:42;22.10;99.90
23579;DHT22;11967;50.852;4.400;2022-08-21T05:51:13;22.00;99.90
23579;DHT22;11967;50.852;4.400;2022-08-21T05:53:40;21.90;99.90
23579;DHT22;11967;50.852;4.400;2022-08-21T05:56:12;21.90;99.90
23579;DHT22;11967;50.852;4.400;2022-08-21T05:58:41;22.10;99.90
23579;DHT22;11967;50.852;4.400;2022-08-21T06:01:07;22.20;99.90
23579;DHT22;11967;50.852;4.400;2022-08-21T06:03:40;22.20;99.90
23579;DHT22;11967;50.852;4.400;2022-08-21T06:06:09;22.20;99.90
23579;DHT22;11967;50.852;4.400;2022-08-21T06:08:38;22.20;99.90
23579;DHT22;11967;50.852;4.400;2022-08-21T06:11:06;22.30;99.90
23579;DHT22;11967;50.852;4.400;2022-08-21T06:13:32;22.30;99.90
23579;DHT22;11967;50.852;4.400;2022-08-21T06:16:09;22.40;99.90
23579;DHT22;11967;50.852;4.400;2022-08-21T06:18:37;22.50;99.90
23579;DHT22;11967;50.852;4.400;2022-08-21T06:21:03;22.40;99.90
23579;DHT22;11967;50.852;4.400;2022-08-21T06:23:30;22.50;99.90
23579;DHT22;11967;50.852;4.400;2022-08-21T06:25:56;22.40;99.90
23579;DHT22;11967;50.852;4.400;2022-08-21T06:28:22;22.30;99.90
23579;DHT22;11967;50.852;4.400;2022-08-21T06:30:51;22.10;99.90
23579;DHT22;11967;50.852;4.400;2022-08-21T06:33:16;22.10;99.90
23579;DHT22;11967;50.852;4.400;2022-08-21T06:35:44;22.10;99.90
23579;DHT22;11967;50.852;4.400;2022-08-21T06:38:12;22.20;99.90
23579;DHT22;11967;50.852;4.400;2022-08-21T06:40:38;22.20;99.90
23579;DHT22;11967;50.852;4.400;2022-08-21T06:43:11;22.30;99.90
23579;DHT22;11967;50.852;4.400;2022-08-21T06:45:40;22.30;99.90
23579;DHT22;11967;50.852;4.400;2022-08-21T06:48:06;22.40;99.90
23579;DHT22;11967;50.852;4.400;2022-08-21T06:50:35;22.40;99.90
23579;DHT22;11967;50.852;4.400;2022-08-21T06:53:11;22.40;99.90
23579;DHT22;11967;50.852;4.400;2022-08-21T06:55:40;22.20;99.90
23579;DHT22;11967;50.852;4.400;2022-08-21T06:58:06;22.20;99.90
23579;DHT22;11967;50.852;4.400;2022-08-21T07:00:32;22.20;99.90
23579;DHT22;11967;50.852;4.400;2022-08-21T07:02:59;22.10;99.90
23579;DHT22;11967;50.852;4.400;2022-08-21T07:05:26;22.10;99.90
23579;DHT22;11967;50.852;4.400;2022-08-21T07:07:52;22.00;99.90
23579;DHT22;11967;50.852;4.400;2022-08-21T07:10:18;21.90;99.90
23579;DHT22;11967;50.852;4.400;2022-08-21T07:12:45;21.90;99.90
23579;DHT22;11967;50.852;4.400;2022-08-21T07:15:13;21.90;99.90
23579;DHT22;11967;50.852;4.400;2022-08-21T07:17:42;22.00;99.90
23579;DHT22;11967;50.852;4.400;2022-08-21T07:20:08;22.10;99.90
23579;DHT22;11967;50.852;4.400;2022-08-21T07:22:38;22.20;99.90
23579;DHT22;11967;50.852;4.400;2022-08-21T07:25:05;22.00;99.90
23579;DHT22;11967;50.852;4.400;2022-08-21T07:27:34;22.00;99.90
23579;DHT22;11967;50.852;4.400;2022-08-21T07:30:01;22.10;99.90
23579;DHT22;11967;50.852;4.400;2022-08-21T07:32:27;22.00;99.90
23579;DHT22;11967;50.852;4.400;2022-08-21T07:34:53;22.00;99.90
23579;DHT22;11967;50.852;4.400;2022-08-21T07:37:20;21.80;99.90
23579;DHT22;11967;50.852;4.400;2022-08-21T07:39:47;21.80;99.90
23579;DHT22;11967;50.852;4.400;2022-08-21T07:42:15;21.60;99.90
23579;DHT22;11967;50.852;4.400;2022-08-21T07:44:40;21.60;99.90
23579;DHT22;11967;50.852;4.400;2022-08-21T07:47:08;21.60;99.90
23579;DHT22;11967;50.852;4.400;2022-08-21T07:49:34;21.50;99.90
23579;DHT22;11967;50.852;4.400;2022-08-21T07:52:01;21.40;99.90
23579;DHT22;11967;50.852;4.400;2022-08-21T07:54:29;21.40;99.90
23579;DHT22;11967;50.852;4.400;2022-08-21T07:56:57;21.40;99.90
23579;DHT22;11967;50.852;4.400;2022-08-21T07:59:23;21.50;99.90
23579;DHT22;11967;50.852;4.400;2022-08-21T08:01:49;21.50;99.90
23579;DHT22;11967;50.852;4.400;2022-08-21T08:04:15;21.50;99.90
23579;DHT22;11967;50.852;4.400;2022-08-21T08:06:43;21.50;99.90
23579;DHT22;11967;50.852;4.400;2022-08-21T08:09:09;21.50;99.90
23579;DHT22;11967;50.852;4.400;2022-08-21T08:11:36;21.60;99.90
23579;DHT22;11967;50.852;4.400;2022-08-21T08:14:04;21.70;99.90
23579;DHT22;11967;50.852;4.400;2022-08-21T08:16:29;21.70;99.90
23579;DHT22;11967;50.852;4.400;2022-08-21T08:18:55;21.70;99.90
23579;DHT22;11967;50.852;4.400;2022-08-21T08:21:21;21.80;99.90
23579;DHT22;11967;50.852;4.400;2022-08-21T08:23:47;21.70;99.90
23579;DHT22;11967;50.852;4.400;2022-08-21T08:26:13;21.80;99.90
23579;DHT22;11967;50.852;4.400;2022-08-21T08:28:43;21.80;99.90
23579;DHT22;11967;50.852;4.400;2022-08-21T08:31:09;21.90;99.90
23579;DHT22;11967;50.852;4.400;2022-08-21T08:33:36;21.90;99.90
23579;DHT22;11967;50.852;4.400;2022-08-21T08:36:05;21.90;99.90
23579;DHT22;11967;50.852;4.400;2022-08-21T08:38:33;21.90;99.90
23579;DHT22;11967;50.852;4.400;2022-08-21T08:43:33;22.00;99.90
23579;DHT22;11967;50.852;4.400;2022-08-21T08:46:04;22.10;99.90
23579;DHT22;11967;50.852;4.400;2022-08-21T08:48:53;22.30;99.90
23579;DHT22;11967;50.852;4.400;2022-08-21T08:51:49;22.40;99.90
23579;DHT22;11967;50.852;4.400;2022-08-21T08:54:40;22.50;99.90
23579;DHT22;11967;50.852;4.400;2022-08-21T08:57:14;22.50;99.90
23579;DHT22;11967;50.852;4.400;2022-08-21T08:59:45;22.50;99.90
23579;DHT22;11967;50.852;4.400;2022-08-21T09:02:14;22.60;99.90
23579;DHT22;11967;50.852;4.400;2022-08-21T09:04:40;22.70;99.90
23579;DHT22;11967;50.852;4.400;2022-08-21T09:15:47;23.00;99.90
23579;DHT22;11967;50.852;4.400;2022-08-21T09:18:35;23.10;99.90
23579;DHT22;11967;50.852;4.400;2022-08-21T09:21:28;23.10;99.90
23579;DHT22;11967;50.852;4.400;2022-08-21T09:29:33;23.20;99.90
23579;DHT22;11967;50.852;4.400;2022-08-21T09:31:58;23.30;99.90
23579;DHT22;11967;50.852;4.400;2022-08-21T09:34:27;23.40;99.90
23579;DHT22;11967;50.852;4.400;2022-08-21T09:36:55;23.50;99.90
23579;DHT22;11967;50.852;4.400;2022-08-21T09:39:37;23.60;99.90
23579;DHT22;11967;50.852;4.400;2022-08-21T09:42:08;23.50;99.90
23579;DHT22;11967;50.852;4.400;2022-08-21T09:44:40;23.50;99.90
23579;DHT22;11967;50.852;4.400;2022-08-21T09:47:10;23.60;99.90
23579;DHT22;11967;50.852;4.400;2022-08-21T09:49:40;23.80;99.90
23579;DHT22;11967;50.852;4.400;2022-08-21T09:52:19;23.80;99.90
23579;DHT22;11967;50.852;4.400;2022-08-21T09:54:53;23.90;99.90
23579;DHT22;11967;50.852;4.400;2022-08-21T09:57:26;23.70;99.90
23579;DHT22;11967;50.852;4.400;2022-08-21T10:00:24;23.70;99.90
23579;DHT22;11967;50.852;4.400;2022-08-21T10:02:50;23.50;99.90
23579;DHT22;11967;50.852;4.400;2022-08-21T10:05:25;23.50;99.90
23579;DHT22;11967;50.852;4.400;2022-08-21T10:07:55;23.60;99.90
23579;DHT22;11967;50.852;4.400;2022-08-21T10:10:26;23.70;99.90
23579;DHT22;11967;50.852;4.400;2022-08-21T10:16:02;23.70;99.90
23579;DHT22;11967;50.852;4.400;2022-08-21T10:29:45;24.00;99.90
23579;DHT22;11967;50.852;4.400;2022-08-21T10:32:31;24.10;99.90
23579;DHT22;11967;50.852;4.400;2022-08-21T10:40:21;24.10;99.90
23579;DHT22;11967;50.852;4.400;2022-08-21T10:51:07;24.40;99.90
23579;DHT22;11967;50.852;4.400;2022-08-21T10:56:29;24.50;99.90
23579;DHT22;11967;50.852;4.400;2022-08-21T10:59:28;24.50;99.90
23579;DHT22;11967;50.852;4.400;2022-08-21T11:02:03;24.50;99.90
23579;DHT22;11967;50.852;4.400;2022-08-21T11:04:49;24.50;99.90
23579;DHT22;11967;50.852;4.400;2022-08-21T11:07:36;24.30;99.90
23579;DHT22;11967;50.852;4.400;2022-08-21T11:10:21;24.30;99.90
23579;DHT22;11967;50.852;4.400;2022-08-21T11:12:56;24.30;99.90
23579;DHT22;11967;50.852;4.400;2022-08-21T11:15:43;24.60;99.90
23579;DHT22;11967;50.852;4.400;2022-08-21T11:20:50;24.90;99.90
23579;DHT22;11967;50.852;4.400;2022-08-21T11:26:09;25.00;99.90
23579;DHT22;11967;50.852;4.400;2022-08-21T11:34:49;24.90;99.90
23579;DHT22;11967;50.852;4.400;2022-08-21T11:37:41;24.70;99.90
23579;DHT22;11967;50.852;4.400;2022-08-21T11:40:35;24.80;99.90
23579;DHT22;11967;50.852;4.400;2022-08-21T11:43:16;24.70;99.90
23579;DHT22;11967;50.852;4.400;2022-08-21T11:50:41;24.70;99.90
23579;DHT22;11967;50.852;4.400;2022-08-21T11:54:12;24.60;99.90
23579;DHT22;11967;50.852;4.400;2022-08-21T11:56:20;24.70;99.90
23579;DHT22;11967;50.852;4.400;2022-08-21T11:58:58;24.80;99.90
23579;DHT22;11967;50.852;4.400;2022-08-21T12:01:31;25.00;99.90
23579;DHT22;11967;50.852;4.400;2022-08-21T12:04:06;25.00;99.90
23579;DHT22;11967;50.852;4.400;2022-08-21T12:06:40;25.20;99.90
23579;DHT22;11967;50.852;4.400;2022-08-21T12:09:09;25.30;99.90
23579;DHT22;11967;50.852;4.400;2022-08-21T12:11:48;25.40;99.90
23579;DHT22;11967;50.852;4.400;2022-08-21T12:14:17;25.50;99.90
23579;DHT22;11967;50.852;4.400;2022-08-21T12:16:46;25.50;99.90
23579;DHT22;11967;50.852;4.400;2022-08-21T12:21:57;25.60;99.90
23579;DHT22;11967;50.852;4.400;2022-08-21T12:26:58;25.90;99.90
23579;DHT22;11967;50.852;4.400;2022-08-21T12:32:00;25.90;99.90
23579;DHT22;11967;50.852;4.400;2022-08-21T12:34:47;25.90;99.90
23579;DHT22;11967;50.852;4.400;2022-08-21T12:37:40;26.00;99.90
23579;DHT22;11967;50.852;4.400;2022-08-21T12:40:18;26.00;99.60
23579;DHT22;11967;50.852;4.400;2022-08-21T12:42:50;25.90;99.10
23579;DHT22;11967;50.852;4.400;2022-08-21T12:45:19;25.90;99.10
23579;DHT22;11967;50.852;4.400;2022-08-21T12:47:56;25.80;99.60
23579;DHT22;11967;50.852;4.400;2022-08-21T12:50:43;25.80;99.00
23579;DHT22;11967;50.852;4.400;2022-08-21T12:53:25;25.80;99.30
23579;DHT22;11967;50.852;4.400;2022-08-21T12:55:52;25.70;99.70
23579;DHT22;11967;50.852;4.400;2022-08-21T12:58:25;25.80;99.20
23579;DHT22;11967;50.852;4.400;2022-08-21T13:00:57;25.70;98.80
23579;DHT22;11967;50.852;4.400;2022-08-21T13:03:24;25.70;98.80
23579;DHT22;11967;50.852;4.400;2022-08-21T13:05:51;25.70;99.20
23579;DHT22;11967;50.852;4.400;2022-08-21T13:08:19;25.60;98.80
23579;DHT22;11967;50.852;4.400;2022-08-21T13:10:47;25.50;98.40
23579;DHT22;11967;50.852;4.400;2022-08-21T13:13:20;25.40;98.30
23579;DHT22;11967;50.852;4.400;2022-08-21T13:15:46;25.40;98.70
23579;DHT22;11967;50.852;4.400;2022-08-21T13:18:25;25.40;98.80
23579;DHT22;11967;50.852;4.400;2022-08-21T13:20:51;25.60;98.70
23579;DHT22;11967;50.852;4.400;2022-08-21T13:23:28;25.70;98.90
23579;DHT22;11967;50.852;4.400;2022-08-21T13:25:56;25.60;98.90
23579;DHT22;11967;50.852;4.400;2022-08-21T13:28:23;25.40;99.10
23579;DHT22;11967;50.852;4.400;2022-08-21T13:30:54;25.30;99.10
23579;DHT22;11967;50.852;4.400;2022-08-21T13:33:23;25.20;99.90
23579;DHT22;11967;50.852;4.400;2022-08-21T13:38:30;25.30;99.90
23579;DHT22;11967;50.852;4.400;2022-08-21T13:41:04;25.20;99.70
23579;DHT22;11967;50.852;4.400;2022-08-21T13:43:33;25.00;99.90
23579;DHT22;11967;50.852;4.400;2022-08-21T13:46:01;24.90;99.90
23579;DHT22;11967;50.852;4.400;2022-08-21T13:48:33;25.00;99.90
23579;DHT22;11967;50.852;4.400;2022-08-21T13:50:59;25.00;99.90
23579;DHT22;11967;50.852;4.400;2022-08-21T13:56:07;25.00;99.90
23579;DHT22;11967;50.852;4.400;2022-08-21T13:58:44;25.10;99.90
23579;DHT22;11967;50.852;4.400;2022-08-21T14:04:03;25.20;99.90
23579;DHT22;11967;50.852;4.400;2022-08-21T14:06:35;25.20;99.90
23579;DHT22;11967;50.852;4.400;2022-08-21T14:11:56;25.40;99.50
23579;DHT22;11967;50.852;4.400;2022-08-21T14:14:26;25.30;99.40
23579;DHT22;11967;50.852;4.400;2022-08-21T14:17:02;25.40;99.50
23579;DHT22;11967;50.852;4.400;2022-08-21T14:19:49;25.20;99.00
23579;DHT22;11967;50.852;4.400;2022-08-21T14:22:45;25.20;99.60
23579;DHT22;11967;50.852;4.400;2022-08-21T14:27:58;25.20;99.90
23579;DHT22;11967;50.852;4.400;2022-08-21T14:30:33;25.30;99.90
23579;DHT22;11967;50.852;4.400;2022-08-21T14:33:01;25.40;99.90
23579;DHT22;11967;50.852;4.400;2022-08-21T14:35:27;25.40;99.60
23579;DHT22;11967;50.852;4.400;2022-08-21T14:37:53;25.40;99.60
23579;DHT22;11967;50.852;4.400;2022-08-21T14:40:21;25.40;99.40
23579;DHT22;11967;50.852;4.400;2022-08-21T14:42:47;25.40;99.60
23579;DHT22;11967;50.852;4.400;2022-08-21T14:45:26;25.40;99.60
23579;DHT22;11967;50.852;4.400;2022-08-21T14:47:55;25.40;99.40
23579;DHT22;11967;50.852;4.400;2022-08-21T14:50:23;25.30;99.60
23579;DHT22;11967;50.852;4.400;2022-08-21T14:52:49;25.40;99.80
23579;DHT22;11967;50.852;4.400;2022-08-21T14:55:16;25.30;99.50
23579;DHT22;11967;50.852;4.400;2022-08-21T14:57:45;25.30;99.50
23579;DHT22;11967;50.852;4.400;2022-08-21T15:00:13;25.20;99.40
23579;DHT22;11967;50.852;4.400;2022-08-21T15:02:39;25.10;99.70
23579;DHT22;11967;50.852;4.400;2022-08-21T15:05:05;25.20;99.90
23579;DHT22;11967;50.852;4.400;2022-08-21T15:07:31;25.30;99.90
23579;DHT22;11967;50.852;4.400;2022-08-21T15:09:57;25.40;99.70
23579;DHT22;11967;50.852;4.400;2022-08-21T15:12:24;25.40;99.60
23579;DHT22;11967;50.852;4.400;2022-08-21T15:14:50;25.40;99.20
23579;DHT22;11967;50.852;4.400;2022-08-21T15:17:18;25.30;98.90
23579;DHT22;11967;50.852;4.400;2022-08-21T15:19:45;25.20;99.10
23579;DHT22;11967;50.852;4.400;2022-08-21T15:22:12;25.30;99.50
23579;DHT22;11967;50.852;4.400;2022-08-21T15:24:37;25.30;99.20
23579;DHT22;11967;50.852;4.400;2022-08-21T15:27:03;25.40;99.10
23579;DHT22;11967;50.852;4.400;2022-08-21T15:29:32;25.40;99.10
23579;DHT22;11967;50.852;4.400;2022-08-21T15:32:01;25.40;99.00
23579;DHT22;11967;50.852;4.400;2022-08-21T15:34:29;25.40;99.20
23579;DHT22;11967;50.852;4.400;2022-08-21T15:36:57;25.30;98.50
23579;DHT22;11967;50.852;4.400;2022-08-21T15:39:25;25.20;98.90
23579;DHT22;11967;50.852;4.400;2022-08-21T15:41:53;25.20;99.20
23579;DHT22;11967;50.852;4.400;2022-08-21T15:44:19;25.20;99.50
23579;DHT22;11967;50.852;4.400;2022-08-21T15:46:45;25.30;99.50
23579;DHT22;11967;50.852;4.400;2022-08-21T15:49:12;25.30;99.50
23579;DHT22;11967;50.852;4.400;2022-08-21T15:51:39;25.40;99.20
23579;DHT22;11967;50.852;4.400;2022-08-21T15:54:07;25.50;99.10
23579;DHT22;11967;50.852;4.400;2022-08-21T15:56:35;25.40;98.90
23579;DHT22;11967;50.852;4.400;2022-08-21T15:59:22;25.40;98.60
23579;DHT22;11967;50.852;4.400;2022-08-21T16:01:49;25.40;99.00
23579;DHT22;11967;50.852;4.400;2022-08-21T16:04:22;25.30;99.00
23579;DHT22;11967;50.852;4.400;2022-08-21T16:06:48;25.40;99.60
23579;DHT22;11967;50.852;4.400;2022-08-21T16:09:14;25.40;99.20
23579;DHT22;11967;50.852;4.400;2022-08-21T16:11:41;25.40;99.00
23579;DHT22;11967;50.852;4.400;2022-08-21T16:14:11;25.50;98.80
23579;DHT22;11967;50.852;4.400;2022-08-21T16:16:38;25.60;99.00
23579;DHT22;11967;50.852;4.400;2022-08-21T16:19:04;25.60;99.10
23579;DHT22;11967;50.852;4.400;2022-08-21T16:21:32;25.70;98.80
23579;DHT22;11967;50.852;4.400;2022-08-21T16:23:58;25.70;98.30
23579;DHT22;11967;50.852;4.400;2022-08-21T16:26:24;25.70;98.10
23579;DHT22;11967;50.852;4.400;2022-08-21T16:28:52;25.70;98.10
23579;DHT22;11967;50.852;4.400;2022-08-21T16:31:20;25.60;97.40
23579;DHT22;11967;50.852;4.400;2022-08-21T16:33:54;25.60;97.90
23579;DHT22;11967;50.852;4.400;2022-08-21T16:36:21;25.60;97.70
23579;DHT22;11967;50.852;4.400;2022-08-21T16:38:48;25.60;98.00
23579;DHT22;11967;50.852;4.400;2022-08-21T16:41:17;25.60;97.50
23579;DHT22;11967;50.852;4.400;2022-08-21T16:43:44;25.60;97.60
23579;DHT22;11967;50.852;4.400;2022-08-21T16:46:12;25.60;96.80
23579;DHT22;11967;50.852;4.400;2022-08-21T16:48:41;25.60;97.10
23579;DHT22;11967;50.852;4.400;2022-08-21T16:51:13;25.50;97.50
23579;DHT22;11967;50.852;4.400;2022-08-21T16:53:39;25.60;98.10
23579;DHT22;11967;50.852;4.400;2022-08-21T16:56:09;25.60;97.70
23579;DHT22;11967;50.852;4.400;2022-08-21T16:58:39;25.60;98.00
23579;DHT22;11967;50.852;4.400;2022-08-21T17:01:10;25.60;98.10
23579;DHT22;11967;50.852;4.400;2022-08-21T17:03:45;25.60;97.40
23579;DHT22;11967;50.852;4.400;2022-08-21T17:06:12;25.70;98.20
23579;DHT22;11967;50.852;4.400;2022-08-21T17:08:38;25.70;98.10
23579;DHT22;11967;50.852;4.400;2022-08-21T17:11:13;25.60;97.50
23579;DHT22;11967;50.852;4.400;2022-08-21T17:13:41;25.70;97.90
23579;DHT22;11967;50.852;4.400;2022-08-21T17:16:06;25.60;97.30